createdAt,value
2019-02-23T00:00:15.181Z,4.68
2019-02-23T00:02:43.833Z,4.70
2019-02-23T00:05:12.529Z,4.62
2019-02-23T00:07:41.385Z,4.56
2019-02-23T00:10:10.111Z,4.51
2019-02-23T00:12:38.861Z,4.53
2019-02-23T00:15:08.448Z,4.47
2019-02-23T00:17:37.206Z,4.35
2019-02-23T00:20:08.420Z,4.32
2019-02-23T00:22:37.118Z,4.32
2019-02-23T00:25:06.051Z,4.29
2019-02-23T00:27:34.776Z,4.25
2019-02-23T00:30:03.510Z,4.15
2019-02-23T00:32:32.326Z,4.11
2019-02-23T00:35:00.973Z,4.17
2019-02-23T00:37:29.747Z,4.13
2019-02-23T00:39:58.388Z,4.06
2019-02-23T00:42:27.117Z,4.08
2019-02-23T00:44:55.766Z,4.06
2019-02-23T00:47:24.406Z,3.92
2019-02-23T00:49:53.591Z,3.96
2019-02-23T00:52:22.254Z,3.89
2019-02-23T00:54:50.954Z,3.88
2019-02-23T00:57:19.739Z,3.87
2019-02-23T00:59:48.480Z,3.82
2019-02-23T01:02:17.191Z,3.78
2019-02-23T01:04:45.967Z,3.78
2019-02-23T01:07:14.702Z,3.74
2019-02-23T01:09:43.420Z,3.79
2019-02-23T01:12:12.222Z,3.81
2019-02-23T01:14:40.932Z,3.70
2019-02-23T01:17:09.657Z,3.68
2019-02-23T01:19:47.410Z,3.56
2019-02-23T01:22:08.880Z,3.59
2019-02-23T01:24:37.438Z,3.58
2019-02-23T01:27:06.177Z,3.69
2019-02-23T01:29:34.974Z,3.65
2019-02-23T01:32:03.708Z,3.57
2019-02-23T01:34:32.541Z,2.80
2019-02-23T01:37:01.265Z,3.45
2019-02-23T01:39:29.978Z,3.54
2019-02-23T01:41:58.769Z,3.51
2019-02-23T01:44:27.612Z,3.56
2019-02-23T01:46:56.238Z,3.50
2019-02-23T01:49:24.949Z,3.52
2019-02-23T01:51:53.795Z,3.43
2019-02-23T01:54:22.529Z,3.36
2019-02-23T01:56:51.276Z,3.45
2019-02-23T01:59:19.999Z,3.41
2019-02-23T02:01:48.729Z,3.41
2019-02-23T02:04:17.409Z,3.37
2019-02-23T02:06:46.216Z,3.41
2019-02-23T02:09:15.021Z,3.41
2019-02-23T02:11:43.708Z,3.36
2019-02-23T02:14:12.443Z,3.32
2019-02-23T02:16:42.024Z,3.15
2019-02-23T02:19:10.795Z,3.24
2019-02-23T02:21:39.545Z,3.20
2019-02-23T02:24:08.285Z,3.11
2019-02-23T02:26:37.044Z,3.09
2019-02-23T02:29:05.798Z,3.00
2019-02-23T02:31:34.493Z,3.03
2019-02-23T02:34:08.067Z,2.98
2019-02-23T02:36:36.780Z,2.96
2019-02-23T02:39:11.163Z,2.99
2019-02-23T02:41:39.821Z,2.99
2019-02-23T02:44:08.437Z,2.98
2019-02-23T02:46:37.153Z,3.03
2019-02-23T02:49:05.892Z,3.00
2019-02-23T02:51:34.604Z,2.89
2019-02-23T02:54:03.363Z,2.84
2019-02-23T02:56:32.122Z,2.84
2019-02-23T02:59:00.881Z,2.79
2019-02-23T03:01:29.628Z,2.78
2019-02-23T03:03:58.330Z,2.76
2019-02-23T03:06:27.071Z,2.73
2019-02-23T03:08:55.918Z,2.69
2019-02-23T03:11:24.833Z,2.62
2019-02-23T03:13:53.526Z,2.56
2019-02-23T03:16:22.284Z,2.57
2019-02-23T03:18:51.042Z,2.46
2019-02-23T03:21:19.762Z,2.50
2019-02-23T03:23:48.448Z,2.49
2019-02-23T03:26:17.178Z,2.50
2019-02-23T03:28:45.888Z,2.47
2019-02-23T03:31:14.599Z,2.43
2019-02-23T03:33:43.207Z,2.43
2019-02-23T03:36:11.956Z,2.42
2019-02-23T03:38:40.760Z,2.42
2019-02-23T03:41:09.623Z,2.44
2019-02-23T03:43:38.389Z,2.43
2019-02-23T03:46:07.145Z,2.45
2019-02-23T03:48:35.869Z,2.42
2019-02-23T03:51:05.178Z,2.40
2019-02-23T03:53:33.942Z,1.76
2019-02-23T03:56:02.680Z,2.39
2019-02-23T03:58:31.397Z,2.31
2019-02-23T04:01:00.182Z,2.26
2019-02-23T04:03:29.067Z,2.24
2019-02-23T04:05:57.769Z,2.27
2019-02-23T04:08:26.403Z,2.32
2019-02-23T04:10:55.136Z,2.34
2019-02-23T04:13:23.767Z,2.34
2019-02-23T04:15:52.444Z,2.37
2019-02-23T04:18:21.172Z,2.01
2019-02-23T04:21:01.366Z,2.40
2019-02-23T04:23:20.388Z,2.39
2019-02-23T04:25:49.096Z,2.32
2019-02-23T04:28:17.859Z,2.32
2019-02-23T04:30:46.578Z,2.32
2019-02-23T04:33:15.205Z,2.36
2019-02-23T04:35:46.496Z,2.41
2019-02-23T04:38:14.341Z,2.31
2019-02-23T04:40:43.050Z,2.19
2019-02-23T04:43:11.710Z,2.14
2019-02-23T04:45:40.425Z,2.02
2019-02-23T04:48:09.133Z,2.04
2019-02-23T04:50:37.819Z,2.08
2019-02-23T04:53:06.532Z,2.04
2019-02-23T04:55:36.729Z,2.15
2019-02-23T04:58:05.865Z,2.27
2019-02-23T05:00:37.403Z,2.27
2019-02-23T05:03:07.109Z,2.31
2019-02-23T05:05:35.848Z,2.33
2019-02-23T05:08:05.188Z,2.33
2019-02-23T05:10:33.935Z,2.09
2019-02-23T05:13:02.569Z,2.22
2019-02-23T05:15:31.295Z,2.12
2019-02-23T05:18:00.008Z,2.19
2019-02-23T05:20:28.745Z,2.22
2019-02-23T05:22:57.606Z,2.33
2019-02-23T05:25:26.349Z,2.32
2019-02-23T05:27:55.047Z,2.36
2019-02-23T05:30:23.849Z,2.37
2019-02-23T05:32:52.541Z,2.35
2019-02-23T05:35:21.218Z,2.32
2019-02-23T05:37:49.998Z,2.26
2019-02-23T05:40:18.683Z,2.29
2019-02-23T05:42:47.743Z,2.27
2019-02-23T05:45:16.678Z,1.54
2019-02-23T05:47:45.349Z,2.16
2019-02-23T05:50:14.174Z,2.16
2019-02-23T05:52:43.031Z,2.21
2019-02-23T05:55:11.686Z,2.21
2019-02-23T05:57:40.322Z,2.19
2019-02-23T06:00:14.765Z,2.13
2019-02-23T06:02:45.277Z,2.14
2019-02-23T06:05:14.146Z,2.08
2019-02-23T06:07:44.017Z,2.06
2019-02-23T06:10:12.770Z,2.03
2019-02-23T06:12:41.591Z,2.07
2019-02-23T06:15:12.483Z,1.95
2019-02-23T06:17:41.259Z,2.05
2019-02-23T06:20:10.934Z,2.03
2019-02-23T06:22:39.732Z,1.98
2019-02-23T06:25:09.878Z,2.02
2019-02-23T06:27:38.610Z,2.07
2019-02-23T06:30:10.388Z,2.12
2019-02-23T06:32:39.112Z,2.16
2019-02-23T06:35:10.223Z,2.24
2019-02-23T06:37:38.964Z,2.16
2019-02-23T06:40:12.215Z,2.12
2019-02-23T06:42:41.019Z,2.13
2019-02-23T06:45:12.205Z,2.07
2019-02-23T06:47:41.007Z,2.04
2019-02-23T06:50:09.838Z,1.96
2019-02-23T06:52:38.584Z,1.96
2019-02-23T06:55:08.123Z,1.92
2019-02-23T06:57:37.994Z,2.00
2019-02-23T07:00:09.753Z,2.22
2019-02-23T07:02:38.558Z,2.33
2019-02-23T07:05:07.599Z,2.40
2019-02-23T07:07:36.357Z,2.39
2019-02-23T07:10:08.593Z,2.38
2019-02-23T07:12:37.487Z,2.44
2019-02-23T07:15:08.327Z,2.45
2019-02-23T07:17:37.028Z,2.56
2019-02-23T07:20:08.382Z,2.62
2019-02-23T07:22:37.167Z,2.68
2019-02-23T07:25:08.182Z,2.78
2019-02-23T07:27:36.928Z,2.90
2019-02-23T07:30:08.545Z,3.08
2019-02-23T07:32:37.194Z,3.32
2019-02-23T07:35:07.513Z,3.46
2019-02-23T07:37:36.256Z,3.49
2019-02-23T07:40:08.320Z,3.66
2019-02-23T07:42:37.089Z,3.76
2019-02-23T07:45:08.704Z,3.91
2019-02-23T07:47:37.575Z,4.36
2019-02-23T07:50:11.704Z,4.60
2019-02-23T07:52:40.398Z,4.55
2019-02-23T07:55:09.407Z,4.93
2019-02-23T07:57:38.100Z,5.03
2019-02-23T08:00:10.705Z,5.05
2019-02-23T08:02:39.749Z,5.00
2019-02-23T08:05:10.712Z,4.99
2019-02-23T08:07:40.080Z,4.99
2019-02-23T08:10:11.847Z,5.22
2019-02-23T08:12:40.680Z,5.39
2019-02-23T08:15:11.782Z,5.37
2019-02-23T08:17:40.570Z,5.14
2019-02-23T08:20:16.560Z,4.65
2019-02-23T08:22:45.249Z,5.21
2019-02-23T08:25:17.188Z,4.89
2019-02-23T08:27:46.651Z,5.19
2019-02-23T08:30:19.286Z,5.40
2019-02-23T08:32:49.186Z,5.56
2019-02-23T08:35:24.680Z,5.28
2019-02-23T08:38:03.319Z,5.23
2019-02-23T08:40:34.227Z,4.89
2019-02-23T08:43:03.217Z,5.52
2019-02-23T08:45:32.213Z,5.06
2019-02-23T08:48:01.039Z,5.29
2019-02-23T08:50:29.869Z,5.51
2019-02-23T08:53:01.266Z,6.09
2019-02-23T08:55:31.103Z,5.95
2019-02-23T08:58:00.668Z,6.36
2019-02-23T09:00:30.478Z,5.87
2019-02-23T09:02:59.252Z,6.26
2019-02-23T09:05:28.122Z,6.55
2019-02-23T09:07:56.862Z,6.62
2019-02-23T09:10:25.790Z,6.85
2019-02-23T09:12:54.816Z,6.67
2019-02-23T09:15:24.277Z,6.71
2019-02-23T09:17:53.297Z,7.18
2019-02-23T09:20:29.296Z,7.35
2019-02-23T09:23:00.158Z,7.35
2019-02-23T09:25:26.073Z,7.68
2019-02-23T09:27:57.578Z,7.95
2019-02-23T09:30:26.819Z,7.78
2019-02-23T09:33:07.442Z,8.20
2019-02-23T09:35:39.579Z,8.23
2019-02-23T09:38:08.319Z,7.44
2019-02-23T09:40:39.649Z,7.94
2019-02-23T09:43:13.421Z,7.42
2019-02-23T09:45:44.151Z,7.61
2019-02-23T09:48:12.926Z,7.73
2019-02-23T09:50:41.743Z,7.86
2019-02-23T09:53:11.574Z,8.22
2019-02-23T09:55:40.872Z,7.97
2019-02-23T09:58:09.615Z,7.88
2019-02-23T10:00:38.536Z,7.98
2019-02-23T10:03:07.268Z,7.98
2019-02-23T10:05:38.138Z,8.14
2019-02-23T10:08:06.512Z,8.69
2019-02-23T10:10:36.912Z,8.52
2019-02-23T10:13:11.235Z,8.24
2019-02-23T10:15:41.110Z,8.21
2019-02-23T10:18:13.742Z,8.68
2019-02-23T10:20:44.006Z,8.74
2019-02-23T10:23:21.571Z,8.57
2019-02-23T10:25:45.450Z,8.41
2019-02-23T10:28:14.532Z,8.34
2019-02-23T10:30:48.082Z,8.59
2019-02-23T10:33:47.687Z,8.59
2019-02-23T10:36:35.658Z,9.00
2019-02-23T10:39:25.067Z,8.99
2019-02-23T10:41:55.408Z,9.14
2019-02-23T10:44:34.855Z,8.93
2019-02-23T10:47:12.756Z,8.93
2019-02-23T10:49:41.554Z,9.01
2019-02-23T10:52:11.512Z,9.28
2019-02-23T10:54:40.536Z,9.62
2019-02-23T10:57:10.375Z,9.71
2019-02-23T10:59:39.243Z,9.30
2019-02-23T11:02:08.865Z,9.63
2019-02-23T11:04:38.109Z,10.30
2019-02-23T11:07:06.787Z,10.58
2019-02-23T11:09:37.252Z,10.02
2019-02-23T11:12:05.978Z,10.22
2019-02-23T11:14:34.707Z,10.21
2019-02-23T11:17:06.534Z,9.75
2019-02-23T11:19:37.547Z,9.87
2019-02-23T11:22:06.596Z,9.96
2019-02-23T11:24:35.470Z,10.07
2019-02-23T11:27:05.371Z,10.08
2019-02-23T11:29:34.302Z,10.45
2019-02-23T11:32:03.066Z,10.92
2019-02-23T11:34:32.020Z,10.96
2019-02-23T11:37:01.156Z,11.37
2019-02-23T11:39:29.864Z,10.95
2019-02-23T11:41:58.587Z,10.69
2019-02-23T11:44:27.481Z,10.28
2019-02-23T11:47:00.652Z,10.11
2019-02-23T11:49:29.338Z,10.16
2019-02-23T11:51:58.096Z,10.25
2019-02-23T11:54:26.902Z,10.74
2019-02-23T11:56:55.578Z,10.81
2019-02-23T11:59:24.343Z,10.66
2019-02-23T12:01:53.105Z,10.61
2019-02-23T12:04:21.921Z,10.56
2019-02-23T12:06:50.655Z,10.23
2019-02-23T12:09:19.307Z,9.78
2019-02-23T12:11:48.082Z,10.15
2019-02-23T12:14:16.810Z,10.40
2019-02-23T12:16:45.454Z,10.46
2019-02-23T12:19:14.196Z,10.56
2019-02-23T12:21:42.886Z,10.81
2019-02-23T12:24:11.566Z,10.83
2019-02-23T12:26:40.269Z,10.70
2019-02-23T12:29:08.961Z,10.34
2019-02-23T12:31:37.858Z,10.91
2019-02-23T12:34:06.530Z,11.03
2019-02-23T12:36:35.173Z,10.73
2019-02-23T12:39:05.683Z,10.92
2019-02-23T12:41:34.450Z,10.77
2019-02-23T12:44:03.211Z,10.71
2019-02-23T12:46:31.919Z,10.75
2019-02-23T12:49:00.544Z,10.79
2019-02-23T12:51:29.303Z,11.09
2019-02-23T12:53:58.050Z,10.97
2019-02-23T12:56:26.880Z,10.87
2019-02-23T12:58:55.718Z,10.74
2019-02-23T13:01:24.605Z,10.96
2019-02-23T13:03:53.346Z,10.94
2019-02-23T13:06:21.994Z,11.29
2019-02-23T13:09:13.162Z,11.27
2019-02-23T13:11:44.305Z,11.37
2019-02-23T13:14:38.481Z,11.58
2019-02-23T13:17:21.859Z,11.39
2019-02-23T13:20:14.469Z,11.47
2019-02-23T13:22:54.809Z,11.60
2019-02-23T13:25:32.282Z,11.67
2019-02-23T13:28:20.453Z,11.61
2019-02-23T13:31:00.938Z,11.67
2019-02-23T13:33:43.029Z,11.54
2019-02-23T13:36:25.654Z,11.51
2019-02-23T13:39:07.093Z,11.63
2019-02-23T13:41:43.355Z,11.61
2019-02-23T13:44:19.428Z,11.70
2019-02-23T13:47:04.693Z,11.91
2019-02-23T13:50:11.124Z,12.32
2019-02-23T13:53:01.402Z,12.25
2019-02-23T13:55:52.935Z,12.29
2019-02-23T13:58:30.531Z,12.43
2019-02-23T14:01:02.258Z,12.16
2019-02-23T14:03:36.591Z,12.36
2019-02-23T14:06:20.144Z,12.07
2019-02-23T14:09:09.029Z,11.90
2019-02-23T14:12:03.458Z,11.85
2019-02-23T14:14:40.983Z,11.94
2019-02-23T14:17:15.343Z,12.43
2019-02-23T14:20:05.233Z,12.28
2019-02-23T14:22:48.750Z,12.24
2019-02-23T14:25:35.438Z,12.11
2019-02-23T14:28:18.891Z,12.16
2019-02-23T14:30:56.238Z,11.93
2019-02-23T14:33:27.847Z,12.02
2019-02-23T14:36:11.628Z,12.07
2019-02-23T14:39:05.590Z,11.96
2019-02-23T14:41:43.043Z,11.96
2019-02-23T14:44:17.282Z,12.18
2019-02-23T14:46:54.688Z,12.62
2019-02-23T14:49:32.007Z,12.80
2019-02-23T14:52:18.677Z,13.01
2019-02-23T14:55:14.229Z,13.20
2019-02-23T14:57:57.640Z,13.33
2019-02-23T15:00:35.189Z,13.15
2019-02-23T15:03:13.730Z,13.34
2019-02-23T15:05:57.365Z,13.19
2019-02-23T15:08:47.010Z,12.40
2019-02-23T15:11:33.569Z,12.40
2019-02-23T15:14:08.004Z,12.37
2019-02-23T15:16:59.048Z,12.20
2019-02-23T15:19:30.785Z,12.34
2019-02-23T15:22:35.390Z,12.15
2019-02-23T15:25:13.142Z,12.21
2019-02-23T15:27:44.293Z,12.27
2019-02-23T15:30:21.559Z,12.15
2019-02-23T15:33:13.953Z,12.08
2019-02-23T15:35:52.428Z,11.79
2019-02-23T15:38:33.480Z,11.80
2019-02-23T15:41:05.163Z,11.78
2019-02-23T15:43:56.366Z,11.86
2019-02-23T15:46:39.266Z,11.97
2019-02-23T15:49:31.789Z,11.74
2019-02-23T15:52:02.274Z,11.90
2019-02-23T15:54:30.954Z,11.81
2019-02-23T15:57:00.182Z,11.70
2019-02-23T15:59:28.967Z,11.71
2019-02-23T16:01:57.615Z,11.60
2019-02-23T16:04:26.459Z,11.62
2019-02-23T16:06:55.044Z,11.61
2019-02-23T16:09:23.800Z,11.51
2019-02-23T16:11:52.416Z,11.43
2019-02-23T16:14:21.100Z,11.44
2019-02-23T16:16:49.937Z,11.16
2019-02-23T16:19:19.171Z,11.17
2019-02-23T16:21:47.958Z,11.11
2019-02-23T16:24:16.816Z,10.96
2019-02-23T16:26:51.066Z,11.02
2019-02-23T16:29:19.142Z,10.89
2019-02-23T16:31:48.087Z,10.73
2019-02-23T16:34:17.366Z,10.55
2019-02-23T16:36:46.233Z,10.60
2019-02-23T16:39:14.960Z,10.54
2019-02-23T16:41:43.946Z,10.35
2019-02-23T16:44:12.599Z,10.36
2019-02-23T16:46:41.540Z,10.39
2019-02-23T16:49:12.947Z,10.29
2019-02-23T16:51:41.709Z,10.16
2019-02-23T16:54:10.470Z,10.13
2019-02-23T16:56:39.275Z,9.98
2019-02-23T16:59:07.918Z,9.99
2019-02-23T17:01:36.688Z,9.84
2019-02-23T17:04:05.419Z,9.73
2019-02-23T17:06:34.088Z,9.71
2019-02-23T17:09:02.897Z,9.69
2019-02-23T17:11:34.385Z,9.62
2019-02-23T17:14:03.298Z,9.58
2019-02-23T17:16:32.593Z,9.52
2019-02-23T17:19:01.653Z,9.47
2019-02-23T17:21:30.620Z,9.41
2019-02-23T17:23:59.598Z,9.34
2019-02-23T17:26:29.000Z,9.24
2019-02-23T17:28:57.782Z,9.18
2019-02-23T17:31:26.861Z,9.09
2019-02-23T17:33:55.578Z,9.11
2019-02-23T17:36:24.271Z,9.06
2019-02-23T17:38:52.999Z,8.86
2019-02-23T17:41:21.786Z,8.79
2019-02-23T17:43:50.493Z,8.74
2019-02-23T17:46:19.250Z,8.71
2019-02-23T17:48:47.976Z,8.66
2019-02-23T17:51:16.643Z,8.63
2019-02-23T17:53:45.202Z,8.61
2019-02-23T17:56:14.735Z,8.55
2019-02-23T17:58:43.463Z,8.52
2019-02-23T18:01:12.223Z,8.52
2019-02-23T18:03:44.245Z,8.37
2019-02-23T18:06:12.872Z,8.34
2019-02-23T18:08:41.628Z,8.23
2019-02-23T18:11:10.715Z,8.13
2019-02-23T18:13:39.591Z,8.03
2019-02-23T18:16:08.410Z,8.02
2019-02-23T18:18:37.162Z,7.90
2019-02-23T18:21:06.288Z,7.81
2019-02-23T18:23:35.083Z,7.76
2019-02-23T18:26:03.844Z,7.76
2019-02-23T18:28:33.459Z,7.64
2019-02-23T18:31:02.490Z,7.62
2019-02-23T18:33:31.147Z,7.51
2019-02-23T18:36:03.398Z,7.35
2019-02-23T18:38:32.415Z,7.28
2019-02-23T18:41:01.129Z,7.25
2019-02-23T18:43:34.863Z,7.23
2019-02-23T18:46:03.945Z,7.18
2019-02-23T18:48:32.726Z,7.14
2019-02-23T18:51:04.671Z,7.04
2019-02-23T18:53:34.774Z,6.96
2019-02-23T18:56:06.036Z,6.95
2019-02-23T18:58:34.669Z,6.89
2019-02-23T19:01:03.458Z,6.77
2019-02-23T19:03:32.086Z,6.74
2019-02-23T19:06:09.632Z,6.58
2019-02-23T19:08:39.050Z,6.46
2019-02-23T19:11:07.803Z,6.65
2019-02-23T19:13:36.740Z,6.49
2019-02-23T19:16:05.679Z,6.49
2019-02-23T19:18:34.700Z,6.38
2019-02-23T19:21:03.452Z,6.32
2019-02-23T19:23:32.086Z,6.04
2019-02-23T19:26:01.234Z,5.80
2019-02-23T19:28:29.872Z,5.68
2019-02-23T19:30:58.556Z,5.63
2019-02-23T19:33:27.318Z,5.48
2019-02-23T19:35:56.029Z,5.34
2019-02-23T19:38:24.602Z,5.25
2019-02-23T19:40:53.362Z,5.06
2019-02-23T19:43:21.951Z,4.93
2019-02-23T19:45:50.601Z,4.86
2019-02-23T19:48:20.409Z,4.89
2019-02-23T19:50:52.599Z,4.91
2019-02-23T19:53:22.097Z,4.93
2019-02-23T19:55:51.663Z,4.94
2019-02-23T19:58:21.228Z,4.92
2019-02-23T20:00:50.849Z,4.85
2019-02-23T20:03:20.530Z,4.78
2019-02-23T20:05:50.126Z,4.77
2019-02-23T20:08:19.776Z,4.75
2019-02-23T20:10:49.722Z,4.69
2019-02-23T20:13:19.327Z,4.61
2019-02-23T20:15:48.128Z,4.58
2019-02-23T20:18:16.848Z,4.65
2019-02-23T20:20:45.884Z,4.58
2019-02-23T20:23:14.632Z,4.58
2019-02-23T20:25:43.338Z,4.60
2019-02-23T20:28:12.146Z,4.73
2019-02-23T20:30:40.897Z,4.65
2019-02-23T20:33:09.641Z,4.34
2019-02-23T20:35:38.451Z,4.14
2019-02-23T20:38:07.308Z,4.01
2019-02-23T20:40:37.310Z,4.05
2019-02-23T20:43:05.943Z,4.10
2019-02-23T20:45:34.579Z,4.02
2019-02-23T20:48:03.455Z,4.03
2019-02-23T20:50:32.201Z,4.02
2019-02-23T20:53:00.843Z,4.01
2019-02-23T20:55:29.448Z,4.04
2019-02-23T20:57:58.939Z,4.14
2019-02-23T21:00:27.706Z,4.12
2019-02-23T21:02:56.381Z,4.11
2019-02-23T21:05:25.184Z,4.08
2019-02-23T21:07:55.079Z,4.05
2019-02-23T21:10:24.735Z,4.07
2019-02-23T21:12:53.551Z,4.03
2019-02-23T21:15:22.265Z,4.06
2019-02-23T21:17:51.004Z,4.08
2019-02-23T21:20:19.633Z,4.10
2019-02-23T21:22:48.580Z,4.08
2019-02-23T21:25:17.265Z,4.09
2019-02-23T21:27:46.011Z,4.05
2019-02-23T21:30:14.736Z,3.98
2019-02-23T21:32:43.340Z,3.90
2019-02-23T21:35:12.142Z,3.86
2019-02-23T21:37:46.474Z,3.75
2019-02-23T21:40:15.645Z,3.72
2019-02-23T21:42:44.378Z,3.66
2019-02-23T21:45:13.353Z,3.58
2019-02-23T21:47:42.101Z,3.53
2019-02-23T21:50:11.253Z,3.47
2019-02-23T21:52:40.006Z,3.40
2019-02-23T21:55:10.824Z,3.33
2019-02-23T21:57:40.726Z,3.30
2019-02-23T22:00:14.343Z,3.17
2019-02-23T22:02:43.925Z,3.17
2019-02-23T22:05:13.113Z,3.14
2019-02-23T22:07:41.922Z,3.12
2019-02-23T22:10:10.935Z,3.08
2019-02-23T22:12:39.766Z,3.03
2019-02-23T22:15:10.836Z,2.97
2019-02-23T22:17:39.732Z,2.89
2019-02-23T22:20:09.378Z,2.79
2019-02-23T22:22:38.457Z,2.67
2019-02-23T22:25:07.268Z,2.59
2019-02-23T22:27:35.915Z,2.55
2019-02-23T22:30:07.981Z,2.48
2019-02-23T22:32:37.366Z,2.45
2019-02-23T22:35:06.509Z,2.40
2019-02-23T22:37:35.266Z,2.30
2019-02-23T22:40:07.702Z,2.22
2019-02-23T22:42:36.534Z,2.13
2019-02-23T22:45:07.394Z,2.07
2019-02-23T22:47:36.186Z,2.10
2019-02-23T22:50:07.765Z,2.06
2019-02-23T22:52:36.664Z,2.01
2019-02-23T22:55:07.723Z,1.95
2019-02-23T22:57:40.848Z,1.92
2019-02-23T23:00:32.530Z,1.79
2019-02-23T23:03:01.213Z,1.66
2019-02-23T23:05:30.349Z,1.68
2019-02-23T23:07:59.461Z,1.68
2019-02-23T23:10:28.225Z,1.53
2019-02-23T23:12:57.801Z,1.43
2019-02-23T23:15:27.210Z,1.33
2019-02-23T23:17:56.106Z,1.30
2019-02-23T23:20:24.839Z,1.27
2019-02-23T23:22:53.634Z,1.23
2019-02-23T23:25:22.437Z,1.15
2019-02-23T23:27:51.157Z,1.07
2019-02-23T23:30:19.970Z,1.01
2019-02-23T23:32:48.918Z,1.03
2019-02-23T23:35:18.447Z,1.06
2019-02-23T23:37:47.150Z,1.09
2019-02-23T23:40:15.744Z,1.13
2019-02-23T23:42:44.402Z,1.13
2019-02-23T23:45:13.699Z,1.20
2019-02-23T23:47:42.764Z,1.26
2019-02-23T23:50:11.670Z,1.28
2019-02-23T23:52:40.379Z,1.26
2019-02-23T23:55:09.392Z,1.17
2019-02-23T23:57:38.132Z,0.98
